createdAt,value
2023-04-06T00:00:10.684Z,100193.84
2023-04-06T00:00:42.224Z,100196.31
2023-04-06T00:01:13.782Z,100190.31
2023-04-06T00:01:47.587Z,100194.94
2023-04-06T00:02:19.101Z,100193.31
2023-04-06T00:02:50.657Z,100189.50
2023-04-06T00:03:22.309Z,100193.31
2023-04-06T00:03:53.880Z,100191.13
2023-04-06T00:04:28.514Z,100192.75
2023-04-06T00:04:59.989Z,100191.94
2023-04-06T00:05:31.478Z,100197.94
2023-04-06T00:06:03.020Z,100190.31
2023-04-06T00:06:34.501Z,100194.38
2023-04-06T00:07:05.913Z,100193.28
2023-04-06T00:07:37.321Z,100194.38
2023-04-06T00:08:08.772Z,100187.03
2023-04-06T00:08:40.217Z,100187.59
2023-04-06T00:09:11.653Z,100183.78
2023-04-06T00:09:45.168Z,100179.13
2023-04-06T00:10:16.635Z,100193.03
2023-04-06T00:10:48.104Z,100189.50
2023-04-06T00:11:19.597Z,100189.50
2023-04-06T00:11:51.057Z,100186.78
2023-04-06T00:12:22.465Z,100185.69
2023-04-06T00:12:53.906Z,100188.41
2023-04-06T00:13:25.339Z,100181.84
2023-04-06T00:13:56.763Z,100193.84
2023-04-06T00:14:28.229Z,100189.50
2023-04-06T00:14:59.656Z,100191.13
2023-04-06T00:15:31.085Z,100188.41
2023-04-06T00:16:02.679Z,100188.13
2023-04-06T00:16:39.427Z,100191.13
2023-04-06T00:17:11.032Z,100180.50
2023-04-06T00:17:42.602Z,100185.69
2023-04-06T00:18:14.274Z,100179.69
2023-04-06T00:18:45.765Z,100180.50
2023-04-06T00:19:17.298Z,100183.25
2023-04-06T00:19:48.746Z,100179.13
2023-04-06T00:20:20.265Z,100179.94
2023-04-06T00:20:51.731Z,100182.13
2023-04-06T00:21:23.204Z,100179.69
2023-04-06T00:21:54.910Z,100182.41
2023-04-06T00:22:26.386Z,100182.41
2023-04-06T00:22:57.845Z,100188.69
2023-04-06T00:23:29.328Z,100178.06
2023-04-06T00:24:00.792Z,100175.34
2023-04-06T00:24:32.277Z,100180.25
2023-04-06T00:25:03.710Z,100178.06
2023-04-06T00:25:35.204Z,100173.72
2023-04-06T00:26:08.508Z,100184.34
2023-04-06T00:26:40.005Z,100171.81
2023-04-06T00:27:11.598Z,100176.16
2023-04-06T00:27:43.028Z,100175.59
2023-04-06T00:28:14.497Z,100167.41
2023-04-06T00:28:45.905Z,100170.94
2023-04-06T00:29:17.391Z,100175.31
2023-04-06T00:29:48.857Z,100173.69
2023-04-06T00:30:20.274Z,100174.78
2023-04-06T00:30:51.698Z,100174.78
2023-04-06T00:31:23.120Z,100169.88
2023-04-06T00:31:54.708Z,100169.06
2023-04-06T00:32:26.287Z,100176.97
2023-04-06T00:32:57.849Z,100175.88
2023-04-06T00:33:29.343Z,100174.25
2023-04-06T00:34:00.792Z,100166.06
2023-04-06T00:34:32.230Z,100159.81
2023-04-06T00:35:03.705Z,100173.97
2023-04-06T00:35:35.139Z,100167.97
2023-04-06T00:36:06.649Z,100166.63
2023-04-06T00:36:38.174Z,100166.88
2023-04-06T00:37:09.587Z,100163.88
2023-04-06T00:37:43.643Z,100159.00
2023-04-06T00:38:15.146Z,100159.00
2023-04-06T00:38:46.568Z,100159.00
2023-04-06T00:39:20.350Z,100164.44
2023-04-06T00:39:52.538Z,100163.63
2023-04-06T00:40:24.035Z,100155.16
2023-04-06T00:40:57.615Z,100162.28
2023-04-06T00:41:29.058Z,100162.00
2023-04-06T00:42:00.534Z,100164.97
2023-04-06T00:42:34.566Z,100160.09
2023-04-06T00:43:06.039Z,100155.72
2023-04-06T00:43:39.639Z,100156.53
2023-04-06T00:44:11.099Z,100163.09
2023-04-06T00:44:42.620Z,100159.28
2023-04-06T00:45:14.117Z,100160.09
2023-04-06T00:45:45.684Z,100154.34
2023-04-06T00:46:17.188Z,100159.00
2023-04-06T00:46:48.690Z,100151.09
2023-04-06T00:47:20.257Z,100155.44
2023-04-06T00:47:51.858Z,100155.19
2023-04-06T00:48:23.319Z,100151.09
2023-04-06T00:48:54.903Z,100158.16
2023-04-06T00:49:26.324Z,100154.09
2023-04-06T00:49:57.801Z,100151.38
2023-04-06T00:50:29.328Z,100151.09
2023-04-06T00:51:00.717Z,100153.81
2023-04-06T00:51:32.180Z,100146.75
2023-04-06T00:52:03.623Z,100148.38
2023-04-06T00:52:35.069Z,100150.81
2023-04-06T00:53:06.568Z,100153.53
2023-04-06T00:53:38.010Z,100149.72
2023-04-06T00:54:09.397Z,100149.19
2023-04-06T00:54:40.875Z,100145.66
2023-04-06T00:55:12.273Z,100146.47
2023-04-06T00:55:43.769Z,100145.06
2023-04-06T00:56:15.256Z,100145.06
2023-04-06T00:56:46.676Z,100139.63
2023-04-06T00:57:18.225Z,100139.09
2023-04-06T00:57:49.699Z,100142.09
2023-04-06T00:58:21.187Z,100139.66
2023-04-06T00:58:52.776Z,100142.09
2023-04-06T00:59:26.557Z,100139.38
2023-04-06T00:59:58.031Z,100141.00
2023-04-06T01:00:29.480Z,100146.19
2023-04-06T01:01:01.072Z,100135.56
2023-04-06T01:01:34.105Z,100137.47
2023-04-06T01:02:05.620Z,100139.91
2023-04-06T01:02:37.156Z,100130.09
2023-04-06T01:03:08.761Z,100133.09
2023-04-06T01:03:40.150Z,100133.63
2023-04-06T01:04:11.683Z,100134.16
2023-04-06T01:04:43.156Z,100130.09
2023-04-06T01:05:14.631Z,100130.09
2023-04-06T01:05:46.204Z,100134.75
2023-04-06T01:06:17.784Z,100130.38
2023-04-06T01:06:49.264Z,100131.19
2023-04-06T01:07:20.749Z,100126.00
2023-04-06T01:07:52.180Z,100135.56
2023-04-06T01:08:23.699Z,100131.72
2023-04-06T01:08:55.122Z,100130.91
2023-04-06T01:09:26.596Z,100129.56
2023-04-06T01:09:58.042Z,100132.28
2023-04-06T01:10:32.026Z,100127.66
2023-04-06T01:11:03.544Z,100127.66
2023-04-06T01:11:38.120Z,100124.94
2023-04-06T01:12:09.610Z,100128.75
2023-04-06T01:12:41.055Z,100124.13
2023-04-06T01:13:12.644Z,100125.22
2023-04-06T01:13:44.241Z,100122.78
2023-04-06T01:14:15.632Z,100124.66
2023-04-06T01:14:48.306Z,100129.03
2023-04-06T01:15:19.766Z,100123.31
2023-04-06T01:15:51.301Z,100128.75
2023-04-06T01:16:22.931Z,100126.84
2023-04-06T01:16:54.631Z,100122.78
2023-04-06T01:17:26.114Z,100115.41
2023-04-06T01:17:57.668Z,100127.13
2023-04-06T01:18:29.158Z,100125.75
2023-04-06T01:19:00.587Z,100126.84
2023-04-06T01:19:32.048Z,100125.22
2023-04-06T01:20:03.527Z,100125.22
2023-04-06T01:20:34.981Z,100119.75
2023-04-06T01:21:06.409Z,100120.56
2023-04-06T01:21:37.847Z,100123.31
2023-04-06T01:22:09.349Z,100122.50
2023-04-06T01:22:40.788Z,100119.25
2023-04-06T01:23:12.209Z,100120.88
2023-04-06T01:23:43.673Z,100113.50
2023-04-06T01:24:15.098Z,100121.41
2023-04-06T01:24:46.545Z,100121.41
2023-04-06T01:25:17.973Z,100118.66
2023-04-06T01:25:49.419Z,100114.56
2023-04-06T01:26:23.612Z,100108.59
2023-04-06T01:26:55.029Z,100115.13
2023-04-06T01:27:26.601Z,100114.84
2023-04-06T01:27:58.090Z,100109.97
2023-04-06T01:28:29.479Z,100114.59
2023-04-06T01:29:00.917Z,100113.22
2023-04-06T01:29:32.424Z,100108.88
2023-04-06T01:30:06.734Z,100114.31
2023-04-06T01:30:38.172Z,100107.25
2023-04-06T01:31:09.730Z,100118.13
2023-04-06T01:31:41.359Z,100106.41
2023-04-06T01:32:12.845Z,100114.31
2023-04-06T01:32:44.370Z,100107.75
2023-04-06T01:33:15.918Z,100110.78
2023-04-06T01:33:47.333Z,100108.88
2023-04-06T01:34:18.711Z,100108.88
2023-04-06T01:34:52.977Z,100100.41
2023-04-06T01:35:24.706Z,100103.41
2023-04-06T01:35:56.265Z,100102.88
2023-04-06T01:36:27.740Z,100102.88
2023-04-06T01:36:59.251Z,100115.13
2023-04-06T01:37:30.761Z,100105.31
2023-04-06T01:38:02.226Z,100106.72
2023-04-06T01:38:33.675Z,100102.06
2023-04-06T01:39:05.497Z,100095.53
2023-04-06T01:39:36.935Z,100106.72
2023-04-06T01:40:08.475Z,100100.44
2023-04-06T01:40:39.946Z,100109.44
2023-04-06T01:41:14.922Z,100107.81
2023-04-06T01:41:46.385Z,100099.94
2023-04-06T01:42:17.866Z,100097.97
2023-04-06T01:42:49.444Z,100099.34
2023-04-06T01:43:20.837Z,100103.69
2023-04-06T01:43:52.286Z,100095.53
2023-04-06T01:44:23.790Z,100099.06
2023-04-06T01:44:55.217Z,100097.16
2023-04-06T01:45:26.644Z,100098.78
2023-04-06T01:45:58.094Z,100100.97
2023-04-06T01:46:32.223Z,100101.50
2023-04-06T01:47:03.741Z,100099.34
2023-04-06T01:47:35.211Z,100099.06
2023-04-06T01:48:06.810Z,100097.16
2023-04-06T01:48:38.504Z,100091.97
2023-04-06T01:49:12.804Z,100097.16
2023-04-06T01:49:44.305Z,100104.75
2023-04-06T01:50:15.714Z,100095.25
2023-04-06T01:50:47.156Z,100096.34
2023-04-06T01:51:18.613Z,100090.59
2023-04-06T01:51:50.045Z,100097.69
2023-04-06T01:52:21.531Z,100091.97
2023-04-06T01:52:52.925Z,100099.88
2023-04-06T01:53:24.610Z,100097.16
2023-04-06T01:53:56.050Z,100087.88
2023-04-06T01:54:27.464Z,100090.31
2023-04-06T01:54:58.896Z,100091.41
2023-04-06T01:55:30.379Z,100096.88
2023-04-06T01:56:01.811Z,100097.16
2023-04-06T01:56:33.206Z,100091.69
2023-04-06T01:57:04.636Z,100085.44
2023-04-06T01:57:36.148Z,100102.88
2023-04-06T01:58:07.630Z,100087.06
2023-04-06T01:58:39.115Z,100093.91
2023-04-06T01:59:10.902Z,100095.53
2023-04-06T01:59:42.789Z,100096.06
2023-04-06T02:00:14.350Z,100102.59
2023-04-06T02:00:45.828Z,100088.69
2023-04-06T02:01:23.823Z,100096.63
2023-04-06T02:01:57.620Z,100091.69
2023-04-06T02:02:29.238Z,100095.25
2023-04-06T02:03:00.902Z,100082.72
2023-04-06T02:03:32.264Z,100096.06
2023-04-06T02:04:03.679Z,100082.13
2023-04-06T02:04:35.122Z,100086.78
2023-04-06T02:05:06.663Z,100088.97
2023-04-06T02:05:38.179Z,100091.41
2023-04-06T02:06:09.727Z,100085.44
2023-04-06T02:06:41.165Z,100085.44
2023-04-06T02:07:12.681Z,100079.97
2023-04-06T02:07:44.209Z,100093.59
2023-04-06T02:08:15.614Z,100085.44
2023-04-06T02:08:47.150Z,100078.06
2023-04-06T02:09:18.578Z,100080.78
2023-04-06T02:09:50.042Z,100076.97
2023-04-06T02:10:21.472Z,100081.91
2023-04-06T02:10:55.684Z,100081.91
2023-04-06T02:11:27.188Z,100088.16
2023-04-06T02:11:58.686Z,100076.97
2023-04-06T02:12:30.105Z,100078.34
2023-04-06T02:13:04.200Z,100081.91
2023-04-06T02:13:35.652Z,100083.81
2023-04-06T02:14:07.136Z,100080.28
2023-04-06T02:14:38.590Z,100090.88
2023-04-06T02:15:09.988Z,100091.97
2023-04-06T02:15:41.509Z,100074.81
2023-04-06T02:16:13.027Z,100087.06
2023-04-06T02:16:44.717Z,100079.16
2023-04-06T02:17:16.178Z,100087.06
2023-04-06T02:17:47.768Z,100085.44
2023-04-06T02:18:22.708Z,100086.00
2023-04-06T02:18:54.123Z,100091.97
2023-04-06T02:19:25.669Z,100088.16
2023-04-06T02:19:57.138Z,100085.44
2023-04-06T02:20:28.594Z,100088.16
2023-04-06T02:21:00.122Z,100079.16
2023-04-06T02:21:31.674Z,100085.44
2023-04-06T02:22:03.168Z,100084.34
2023-04-06T02:22:34.665Z,100083.53
2023-04-06T02:23:06.105Z,100087.34
2023-04-06T02:23:37.645Z,100082.19
2023-04-06T02:24:09.270Z,100083.81
2023-04-06T02:24:40.801Z,100080.56
2023-04-06T02:25:12.262Z,100082.19
2023-04-06T02:25:43.735Z,100081.09
2023-04-06T02:26:15.150Z,100083.53
2023-04-06T02:26:46.604Z,100090.88
2023-04-06T02:27:18.105Z,100085.44
2023-04-06T02:27:49.519Z,100095.31
2023-04-06T02:28:21.010Z,100089.03
2023-04-06T02:28:52.502Z,100090.34
2023-04-06T02:29:23.894Z,100082.19
2023-04-06T02:29:55.328Z,100083.28
2023-04-06T02:30:29.492Z,100082.19
2023-04-06T02:31:00.925Z,100090.34
2023-04-06T02:31:32.453Z,100086.00
2023-04-06T02:32:04.003Z,100089.84
2023-04-06T02:32:35.588Z,100091.44
2023-04-06T02:33:07.153Z,100091.16
2023-04-06T02:33:41.744Z,100083.00
2023-04-06T02:34:13.243Z,100083.53
2023-04-06T02:34:46.985Z,100085.44
2023-04-06T02:35:18.484Z,100075.91
2023-04-06T02:35:49.970Z,100076.72
2023-04-06T02:36:21.581Z,100087.63
2023-04-06T02:36:55.747Z,100079.16
2023-04-06T02:37:27.211Z,100076.72
2023-04-06T02:37:58.770Z,100081.09
2023-04-06T02:38:30.204Z,100079.97
2023-04-06T02:39:01.632Z,100086.25
2023-04-06T02:39:33.109Z,100085.44
2023-04-06T02:40:06.443Z,100074.81
2023-04-06T02:40:37.850Z,100080.56
2023-04-06T02:41:09.300Z,100072.91
2023-04-06T02:41:40.702Z,100080.28
2023-04-06T02:42:12.129Z,100074.59
2023-04-06T02:42:43.581Z,100079.44
2023-04-06T02:43:15.082Z,100074.31
2023-04-06T02:43:46.546Z,100082.78
2023-04-06T02:44:17.977Z,100076.50
2023-04-06T02:44:49.416Z,100080.56
2023-04-06T02:45:20.908Z,100079.78
2023-04-06T02:45:52.366Z,100077.81
2023-04-06T02:46:24.014Z,100072.91
2023-04-06T02:46:55.490Z,100073.72
2023-04-06T02:47:26.929Z,100079.44
2023-04-06T02:47:58.588Z,100079.97
2023-04-06T02:48:32.772Z,100081.38
2023-04-06T02:49:04.308Z,100075.91
2023-04-06T02:49:35.723Z,100078.13
2023-04-06T02:50:07.283Z,100075.09
2023-04-06T02:50:38.793Z,100077.31
2023-04-06T02:51:10.298Z,100080.56
2023-04-06T02:51:41.745Z,100072.38
2023-04-06T02:52:13.258Z,100075.91
2023-04-06T02:52:44.703Z,100072.91
2023-04-06T02:53:16.210Z,100074.81
2023-04-06T02:53:47.642Z,100070.19
2023-04-06T02:54:19.039Z,100081.38
2023-04-06T02:54:51.563Z,100076.50
2023-04-06T02:55:23.117Z,100076.72
2023-04-06T02:55:54.622Z,100072.91
2023-04-06T02:56:26.066Z,100081.09
2023-04-06T02:56:57.558Z,100075.91
2023-04-06T02:57:28.999Z,100081.91
2023-04-06T02:58:00.385Z,100077.25
2023-04-06T02:58:31.976Z,100075.63
2023-04-06T02:59:03.419Z,100079.44
2023-04-06T02:59:34.957Z,100079.44
2023-04-06T03:00:06.429Z,100083.28
2023-04-06T03:00:37.920Z,100075.09
2023-04-06T03:01:09.464Z,100076.72
2023-04-06T03:01:41.055Z,100078.63
2023-04-06T03:02:12.507Z,100079.16
2023-04-06T03:02:44.100Z,100072.09
2023-04-06T03:03:15.766Z,100071.28
2023-04-06T03:03:47.477Z,100072.69
2023-04-06T03:04:19.123Z,100070.78
2023-04-06T03:04:50.565Z,100072.38
2023-04-06T03:05:22.103Z,100077.03
2023-04-06T03:05:53.666Z,100075.09
2023-04-06T03:06:25.087Z,100078.94
2023-04-06T03:06:57.444Z,100076.72
2023-04-06T03:07:29.642Z,100075.63
2023-04-06T03:08:01.141Z,100075.09
2023-04-06T03:08:32.578Z,100072.38
2023-04-06T03:09:04.089Z,100078.41
2023-04-06T03:09:35.466Z,100075.69
2023-04-06T03:10:09.786Z,100071.88
2023-04-06T03:10:41.347Z,100072.91
2023-04-06T03:11:12.799Z,100075.91
2023-04-06T03:11:44.357Z,100075.91
2023-04-06T03:12:15.763Z,100076.72
2023-04-06T03:12:47.178Z,100075.09
2023-04-06T03:13:18.612Z,100070.25
2023-04-06T03:13:50.073Z,100071.06
2023-04-06T03:14:21.589Z,100068.88
2023-04-06T03:14:53.036Z,100076.50
2023-04-06T03:15:24.660Z,100073.50
2023-04-06T03:15:56.168Z,100075.41
2023-04-06T03:16:27.651Z,100075.41
2023-04-06T03:16:59.180Z,100074.31
2023-04-06T03:17:30.668Z,100073.78
2023-04-06T03:18:02.195Z,100071.34
2023-04-06T03:18:33.676Z,100070.25
2023-04-06T03:19:05.121Z,100075.41
2023-04-06T03:19:36.677Z,100077.03
2023-04-06T03:20:08.088Z,100069.97
2023-04-06T03:20:39.542Z,100070.25
2023-04-06T03:21:11.024Z,100075.69
2023-04-06T03:21:42.450Z,100073.50
2023-04-06T03:22:13.931Z,100079.53
2023-04-06T03:22:45.386Z,100074.59
2023-04-06T03:23:18.623Z,100072.16
2023-04-06T03:23:50.054Z,100073.19
2023-04-06T03:24:21.533Z,100073.50
2023-04-06T03:24:53.024Z,100068.06
2023-04-06T03:25:24.643Z,100070.78
2023-04-06T03:25:56.116Z,100071.28
2023-04-06T03:26:27.599Z,100067.25
2023-04-06T03:26:59.109Z,100074.00
2023-04-06T03:27:30.628Z,100072.69
2023-04-06T03:28:02.223Z,100068.34
2023-04-06T03:28:33.687Z,100071.59
2023-04-06T03:29:05.206Z,100071.06
2023-04-06T03:29:36.823Z,100069.44
2023-04-06T03:30:08.277Z,100071.06
2023-04-06T03:30:39.693Z,100077.81
2023-04-06T03:31:11.456Z,100074.81
2023-04-06T03:31:42.990Z,100076.72
2023-04-06T03:32:14.543Z,100073.50
2023-04-06T03:32:48.167Z,100070.25
2023-04-06T03:33:19.673Z,100074.88
2023-04-06T03:33:51.175Z,100068.88
2023-04-06T03:34:22.628Z,100075.09
2023-04-06T03:34:54.113Z,100069.44
2023-04-06T03:35:25.699Z,100066.44
2023-04-06T03:35:57.264Z,100067.53
2023-04-06T03:36:28.788Z,100074.59
2023-04-06T03:37:09.355Z,100069.66
2023-04-06T03:37:42.000Z,100070.47
2023-04-06T03:38:13.437Z,100073.19
2023-04-06T03:38:44.918Z,100073.72
2023-04-06T03:39:16.353Z,100072.09
2023-04-06T03:39:47.812Z,100077.53
2023-04-06T03:40:19.254Z,100070.47
2023-04-06T03:40:50.762Z,100071.88
2023-04-06T03:41:22.185Z,100076.22
2023-04-06T03:41:53.662Z,100073.78
2023-04-06T03:42:28.074Z,100070.78
2023-04-06T03:42:59.499Z,100073.50
2023-04-06T03:43:31.010Z,100071.59
2023-04-06T03:44:02.538Z,100076.22
2023-04-06T03:44:34.072Z,100072.38
2023-04-06T03:45:05.507Z,100075.09
2023-04-06T03:45:36.904Z,100069.66
2023-04-06T03:46:08.410Z,100070.78
2023-04-06T03:46:39.976Z,100073.50
2023-04-06T03:47:11.437Z,100070.78
2023-04-06T03:47:42.894Z,100073.19
2023-04-06T03:48:17.242Z,100074.81
2023-04-06T03:48:48.708Z,100064.50
2023-04-06T03:49:20.188Z,100075.41
2023-04-06T03:49:51.638Z,100065.63
2023-04-06T03:50:23.063Z,100072.09
2023-04-06T03:50:54.505Z,100071.59
2023-04-06T03:51:25.983Z,100066.13
2023-04-06T03:51:57.453Z,100070.78
2023-04-06T03:52:28.928Z,100073.19
2023-04-06T03:53:00.467Z,100066.13
2023-04-06T03:53:31.973Z,100068.06
2023-04-06T03:54:03.412Z,100066.44
2023-04-06T03:54:34.995Z,100065.00
2023-04-06T03:55:07.872Z,100070.78
2023-04-06T03:55:39.305Z,100069.97
2023-04-06T03:56:10.808Z,100069.66
2023-04-06T03:56:42.291Z,100070.47
2023-04-06T03:57:13.776Z,100071.59
2023-04-06T03:57:45.160Z,100068.28
2023-04-06T03:58:16.545Z,100069.66
2023-04-06T03:58:47.984Z,100071.88
2023-04-06T03:59:19.478Z,100070.47
2023-04-06T03:59:50.945Z,100070.47
2023-04-06T04:00:22.380Z,100072.91
2023-04-06T04:00:56.461Z,100074.31
2023-04-06T04:01:27.953Z,100071.28
2023-04-06T04:01:59.416Z,100080.56
2023-04-06T04:02:31.062Z,100072.38
2023-04-06T04:03:02.698Z,100069.66
2023-04-06T04:03:34.310Z,100075.09
2023-04-06T04:04:05.842Z,100070.78
2023-04-06T04:04:37.320Z,100073.19
2023-04-06T04:05:08.975Z,100077.81
2023-04-06T04:05:40.584Z,100079.78
2023-04-06T04:06:12.053Z,100070.47
2023-04-06T04:06:43.473Z,100076.72
2023-04-06T04:07:14.988Z,100070.78
2023-04-06T04:07:46.401Z,100081.09
2023-04-06T04:08:17.796Z,100072.63
2023-04-06T04:08:49.303Z,100074.81
2023-04-06T04:09:20.797Z,100075.63
2023-04-06T04:09:52.285Z,100068.28
2023-04-06T04:10:23.832Z,100076.72
2023-04-06T04:10:55.313Z,100075.91
2023-04-06T04:11:26.777Z,100074.31
2023-04-06T04:12:00.830Z,100072.63
2023-04-06T04:12:32.341Z,100081.09
2023-04-06T04:13:06.644Z,100074.00
2023-04-06T04:13:40.932Z,100075.34
2023-04-06T04:14:12.379Z,100074.81
2023-04-06T04:14:43.857Z,100079.16
2023-04-06T04:15:15.271Z,100073.72
2023-04-06T04:15:46.811Z,100074.53
2023-04-06T04:16:18.274Z,100070.47
2023-04-06T04:16:49.819Z,100068.06
2023-04-06T04:17:24.115Z,100077.81
2023-04-06T04:17:55.583Z,100074.59
2023-04-06T04:18:27.085Z,100078.94
2023-04-06T04:18:58.496Z,100076.22
2023-04-06T04:19:30.036Z,100076.72
2023-04-06T04:20:03.011Z,100070.47
2023-04-06T04:20:34.440Z,100074.31
2023-04-06T04:21:05.971Z,100082.19
2023-04-06T04:21:37.380Z,100083.28
2023-04-06T04:22:08.922Z,100074.81
2023-04-06T04:22:40.471Z,100087.63
2023-04-06T04:23:11.883Z,100076.72
2023-04-06T04:23:43.390Z,100078.34
2023-04-06T04:24:14.852Z,100074.00
2023-04-06T04:24:52.149Z,100078.34
2023-04-06T04:25:23.716Z,100081.91
2023-04-06T04:25:55.160Z,100086.53
2023-04-06T04:26:29.531Z,100076.72
2023-04-06T04:27:00.972Z,100084.91
2023-04-06T04:27:32.432Z,100084.63
2023-04-06T04:28:03.976Z,100079.16
2023-04-06T04:28:35.495Z,100077.53
2023-04-06T04:29:07.196Z,100079.44
2023-04-06T04:29:38.882Z,100078.94
2023-04-06T04:30:10.363Z,100075.34
2023-04-06T04:30:41.824Z,100074.53
2023-04-06T04:31:13.272Z,100075.91
2023-04-06T04:31:44.760Z,100079.16
2023-04-06T04:32:16.284Z,100066.63
2023-04-06T04:32:47.816Z,100081.38
2023-04-06T04:33:19.320Z,100081.09
2023-04-06T04:33:50.825Z,100079.16
2023-04-06T04:34:28.332Z,100072.91
2023-04-06T04:34:59.852Z,100071.28
2023-04-06T04:35:31.335Z,100070.78
2023-04-06T04:36:02.857Z,100072.69
2023-04-06T04:36:34.414Z,100075.91
2023-04-06T04:37:05.921Z,100073.72
2023-04-06T04:37:37.343Z,100072.09
2023-04-06T04:38:08.815Z,100082.19
2023-04-06T04:38:43.121Z,100076.72
2023-04-06T04:39:14.655Z,100078.13
2023-04-06T04:39:46.180Z,100075.91
2023-04-06T04:40:17.735Z,100076.22
2023-04-06T04:40:50.748Z,100075.09
2023-04-06T04:41:22.256Z,100072.38
2023-04-06T04:41:53.760Z,100079.44
2023-04-06T04:42:27.901Z,100077.03
2023-04-06T04:43:02.138Z,100080.56
2023-04-06T04:43:33.570Z,100078.94
2023-04-06T04:44:05.028Z,100083.28
2023-04-06T04:44:39.277Z,100077.03
2023-04-06T04:45:10.708Z,100073.72
2023-04-06T04:45:42.256Z,100074.00
2023-04-06T04:46:13.938Z,100076.22
2023-04-06T04:46:45.432Z,100076.50
2023-04-06T04:47:19.868Z,100074.06
2023-04-06T04:47:51.459Z,100076.72
2023-04-06T04:48:22.954Z,100078.34
2023-04-06T04:48:54.393Z,100079.16
2023-04-06T04:49:25.806Z,100073.72
2023-04-06T04:49:57.201Z,100074.53
2023-04-06T04:50:30.060Z,100071.59
2023-04-06T04:51:01.578Z,100069.38
2023-04-06T04:51:33.031Z,100079.16
2023-04-06T04:52:06.005Z,100072.09
2023-04-06T04:52:37.474Z,100072.91
2023-04-06T04:53:09.024Z,100076.72
2023-04-06T04:53:43.281Z,100074.81
2023-04-06T04:54:17.224Z,100073.44
2023-04-06T04:54:48.683Z,100072.63
2023-04-06T04:55:20.175Z,100069.66
2023-04-06T04:55:51.600Z,100071.28
2023-04-06T04:56:25.690Z,100072.09
2023-04-06T04:56:57.212Z,100070.47
2023-04-06T04:57:31.536Z,100070.78
2023-04-06T04:58:03.022Z,100069.66
2023-04-06T04:58:34.542Z,100068.88
2023-04-06T04:59:06.070Z,100074.59
2023-04-06T04:59:37.650Z,100077.03
2023-04-06T05:00:09.164Z,100070.47
2023-04-06T05:00:40.655Z,100075.41
2023-04-06T05:01:12.131Z,100072.69
2023-04-06T05:01:54.396Z,100078.13
2023-04-06T05:02:26.790Z,100076.50
2023-04-06T05:02:58.657Z,100069.44
2023-04-06T05:03:30.184Z,100072.38
2023-04-06T05:04:01.741Z,100069.97
2023-04-06T05:04:33.259Z,100071.06
2023-04-06T05:05:06.741Z,100067.53
2023-04-06T05:05:38.182Z,100070.25
2023-04-06T05:06:11.517Z,100068.56
2023-04-06T05:06:44.349Z,100072.69
2023-04-06T05:07:16.011Z,100076.72
2023-04-06T05:07:47.531Z,100068.28
2023-04-06T05:08:18.971Z,100064.72
2023-04-06T05:08:50.473Z,100064.72
2023-04-06T05:09:21.974Z,100072.09
2023-04-06T05:09:53.404Z,100065.81
2023-04-06T05:10:24.857Z,100065.31
2023-04-06T05:10:56.340Z,100070.25
2023-04-06T05:11:27.779Z,100067.25
2023-04-06T05:11:59.240Z,100068.88
2023-04-06T05:12:30.698Z,100071.28
2023-04-06T05:13:02.144Z,100072.91
2023-04-06T05:13:33.628Z,100066.34
2023-04-06T05:14:08.108Z,100071.81
2023-04-06T05:14:39.541Z,100071.00
2023-04-06T05:15:10.946Z,100074.81
2023-04-06T05:15:42.499Z,100070.78
2023-04-06T05:16:14.008Z,100067.25
2023-04-06T05:16:45.477Z,100062.06
2023-04-06T05:17:17.002Z,100070.78
2023-04-06T05:17:48.500Z,100067.25
2023-04-06T05:18:20.107Z,100068.06
2023-04-06T05:18:51.526Z,100066.44
2023-04-06T05:19:22.996Z,100065.81
2023-04-06T05:19:54.436Z,100073.19
2023-04-06T05:20:25.926Z,100069.16
2023-04-06T05:20:57.434Z,100073.19
2023-04-06T05:21:30.378Z,100067.25
2023-04-06T05:22:01.855Z,100064.19
2023-04-06T05:22:33.382Z,100068.06
2023-04-06T05:23:04.815Z,100065.00
2023-04-06T05:23:37.897Z,100071.28
2023-04-06T05:24:09.373Z,100062.59
2023-04-06T05:24:40.764Z,100065.81
2023-04-06T05:25:12.201Z,100068.88
2023-04-06T05:25:43.683Z,100070.19
2023-04-06T05:26:15.124Z,100061.47
2023-04-06T05:26:46.599Z,100067.25
2023-04-06T05:27:18.079Z,100067.75
2023-04-06T05:27:49.550Z,100070.19
2023-04-06T05:28:21.038Z,100063.91
2023-04-06T05:28:52.580Z,100065.00
2023-04-06T05:29:24.055Z,100067.47
2023-04-06T05:29:56.752Z,100063.63
2023-04-06T05:30:29.264Z,100062.59
2023-04-06T05:31:00.780Z,100061.25
2023-04-06T05:31:32.308Z,100069.16
2023-04-06T05:32:03.833Z,100066.13
2023-04-06T05:32:35.276Z,100068.06
2023-04-06T05:33:06.788Z,100064.19
2023-04-06T05:33:38.251Z,100065.81
2023-04-06T05:34:10.644Z,100064.50
2023-04-06T05:34:42.114Z,100069.66
2023-04-06T05:35:13.595Z,100063.41
2023-04-06T05:35:45.453Z,100068.88
2023-04-06T05:36:16.923Z,100058.53
2023-04-06T05:36:48.361Z,100064.78
2023-04-06T05:37:19.801Z,100072.16
2023-04-06T05:37:51.253Z,100062.59
2023-04-06T05:38:22.756Z,100058.25
2023-04-06T05:38:56.552Z,100066.44
2023-04-06T05:39:28.039Z,100061.78
2023-04-06T05:39:59.455Z,100065.63
2023-04-06T05:40:30.880Z,100065.63
2023-04-06T05:41:02.306Z,100065.63
2023-04-06T05:41:33.806Z,100067.25
2023-04-06T05:42:05.249Z,100066.91
2023-04-06T05:42:36.796Z,100064.19
2023-04-06T05:43:08.257Z,100069.66
2023-04-06T05:43:39.760Z,100069.38
2023-04-06T05:44:11.181Z,100067.75
2023-04-06T05:44:42.660Z,100067.75
2023-04-06T05:45:14.099Z,100067.75
2023-04-06T05:45:45.580Z,100070.47
2023-04-06T05:46:17.184Z,100066.44
2023-04-06T05:46:48.732Z,100068.34
2023-04-06T05:47:20.223Z,100068.06
2023-04-06T05:47:51.677Z,100070.78
2023-04-06T05:48:23.169Z,100069.97
2023-04-06T05:48:54.729Z,100067.25
2023-04-06T05:49:26.156Z,100066.72
2023-04-06T05:49:57.742Z,100066.72
2023-04-06T05:50:29.175Z,100067.00
2023-04-06T05:51:00.605Z,100068.06
2023-04-06T05:51:34.313Z,100065.31
2023-04-06T05:52:05.794Z,100066.13
2023-04-06T05:52:37.241Z,100071.28
2023-04-06T05:53:08.659Z,100066.63
2023-04-06T05:53:40.065Z,100067.16
2023-04-06T05:54:11.551Z,100071.28
2023-04-06T05:54:43.033Z,100061.47
2023-04-06T05:55:14.616Z,100071.28
2023-04-06T05:55:46.080Z,100072.38
2023-04-06T05:56:17.739Z,100064.19
2023-04-06T05:56:49.188Z,100065.53
2023-04-06T05:57:20.658Z,100065.53
2023-04-06T05:57:52.253Z,100072.91
2023-04-06T05:58:23.740Z,100066.44
2023-04-06T05:58:55.257Z,100071.88
2023-04-06T05:59:26.697Z,100065.81
2023-04-06T06:00:03.818Z,100072.09
2023-04-06T06:00:35.329Z,100066.63
2023-04-06T06:01:06.748Z,100072.91
2023-04-06T06:01:38.277Z,100072.63
2023-04-06T06:02:11.254Z,100066.06
2023-04-06T06:02:42.723Z,100066.63